createdAt,value
2022-08-05T00:01:29.388Z,17
2022-08-05T00:02:54.526Z,17
2022-08-05T00:03:58.140Z,17
2022-08-05T00:05:06.210Z,16
2022-08-05T00:08:02.348Z,16
2022-08-05T00:09:19.618Z,17
2022-08-05T00:10:27.479Z,17
2022-08-05T00:11:59.914Z,17
2022-08-05T00:13:03.318Z,17
2022-08-05T00:14:17.716Z,17
2022-08-05T00:16:00.391Z,16
2022-08-05T00:17:19.618Z,16
2022-08-05T00:18:24.526Z,16
2022-08-05T00:20:02.274Z,16
2022-08-05T00:21:08.763Z,17
2022-08-05T00:22:12.521Z,16
2022-08-05T00:23:13.749Z,16
2022-08-05T00:24:30.859Z,16
2022-08-05T00:25:46.566Z,16
2022-08-05T00:26:53.520Z,15
2022-08-05T00:27:55.661Z,18
2022-08-05T00:28:58.047Z,19
2022-08-05T00:30:03.601Z,19
2022-08-05T00:31:08.007Z,20
2022-08-05T00:32:16.100Z,18
2022-08-05T00:35:07.880Z,17
2022-08-05T00:37:14.213Z,17
2022-08-05T00:38:34.533Z,16
2022-08-05T00:39:59.208Z,17
2022-08-05T00:41:01.603Z,17
2022-08-05T00:42:03.523Z,16
2022-08-05T00:43:08.146Z,16
2022-08-05T00:44:17.445Z,16
2022-08-05T00:45:44.247Z,16
2022-08-05T00:47:05.989Z,17
2022-08-05T00:48:12.893Z,19
2022-08-05T00:49:17.395Z,19
2022-08-05T00:50:25.873Z,19
2022-08-05T00:51:53.404Z,19
2022-08-05T00:53:00.856Z,16
2022-08-05T00:54:11.823Z,17
2022-08-05T00:55:16.003Z,17
2022-08-05T00:56:25.123Z,16
2022-08-05T00:57:59.453Z,17
2022-08-05T00:59:07.541Z,17
2022-08-05T01:00:13.562Z,18
2022-08-05T01:01:50.722Z,18
2022-08-05T01:02:53.740Z,18
2022-08-05T01:03:55.232Z,19
2022-08-05T01:04:56.429Z,18
2022-08-05T01:05:59.003Z,18
2022-08-05T01:07:05.596Z,19
2022-08-05T01:08:47.362Z,18
2022-08-05T01:09:56.212Z,18
2022-08-05T01:10:58.350Z,18
2022-08-05T01:12:19.234Z,17
2022-08-05T01:13:59.944Z,18
2022-08-05T01:15:05.452Z,18
2022-08-05T01:16:48.268Z,18
2022-08-05T01:17:54.513Z,17
2022-08-05T01:18:56.976Z,16
2022-08-05T01:20:03.877Z,17
2022-08-05T01:21:05.504Z,17
2022-08-05T01:22:18.735Z,17
2022-08-05T01:23:35.354Z,17
2022-08-05T01:24:38.907Z,17
2022-08-05T01:25:42.025Z,17
2022-08-05T01:26:55.165Z,16
2022-08-05T01:27:57.321Z,16
2022-08-05T01:29:05.728Z,15
2022-08-05T01:30:19.455Z,15
2022-08-05T01:31:48.355Z,16
2022-08-05T01:32:52.689Z,16
2022-08-05T01:33:55.973Z,17
2022-08-05T01:34:58.671Z,17
2022-08-05T01:36:01.943Z,18
2022-08-05T01:37:05.087Z,18
2022-08-05T01:38:06.090Z,16
2022-08-05T01:39:09.369Z,16
2022-08-05T01:40:10.770Z,15
2022-08-05T01:41:14.851Z,16
2022-08-05T01:42:22.843Z,17
2022-08-05T01:43:24.926Z,17
2022-08-05T01:44:35.839Z,17
2022-08-05T01:45:43.548Z,16
2022-08-05T01:47:09.934Z,15
2022-08-05T01:48:17.117Z,15
2022-08-05T01:49:25.227Z,16
2022-08-05T01:51:13.604Z,16
2022-08-05T01:52:19.443Z,18
2022-08-05T01:53:59.248Z,18
2022-08-05T01:55:05.808Z,18
2022-08-05T01:56:09.772Z,18
2022-08-05T01:58:16.552Z,19
2022-08-05T01:59:17.560Z,19
2022-08-05T02:00:18.582Z,19
2022-08-05T02:01:28.104Z,19
2022-08-05T02:02:55.450Z,17
2022-08-05T02:03:57.946Z,16
2022-08-05T02:05:00.603Z,16
2022-08-05T02:06:39.326Z,16
2022-08-05T02:08:01.947Z,16
2022-08-05T02:09:06.084Z,17
2022-08-05T02:10:09.078Z,18
2022-08-05T02:11:34.178Z,19
2022-08-05T02:12:43.185Z,19
2022-08-05T02:13:57.469Z,17
2022-08-05T02:15:03.931Z,17
2022-08-05T02:16:22.874Z,17
2022-08-05T02:18:35.391Z,17
2022-08-05T02:19:48.032Z,18
2022-08-05T02:20:59.299Z,18
2022-08-05T02:22:01.091Z,17
2022-08-05T02:23:02.364Z,17
2022-08-05T02:24:18.092Z,17
2022-08-05T02:25:26.062Z,17
2022-08-05T02:26:56.298Z,18
2022-08-05T02:28:00.930Z,17
2022-08-05T02:29:04.780Z,17
2022-08-05T02:30:27.300Z,17
2022-08-05T02:31:35.468Z,16
2022-08-05T02:32:41.084Z,16
2022-08-05T02:33:42.829Z,16
2022-08-05T02:34:55.855Z,16
2022-08-05T02:36:31.127Z,16
2022-08-05T02:37:36.512Z,17
2022-08-05T02:38:39.894Z,16
2022-08-05T02:39:55.070Z,16
2022-08-05T02:40:58.333Z,16
2022-08-05T02:42:36.272Z,15
2022-08-05T02:44:13.984Z,15
2022-08-05T02:45:18.598Z,14
2022-08-05T02:46:30.120Z,14
2022-08-05T02:48:13.846Z,14
2022-08-05T02:49:17.405Z,14
2022-08-05T02:50:24.068Z,15
2022-08-05T02:52:04.780Z,15
2022-08-05T02:53:19.642Z,15
2022-08-05T02:54:50.612Z,15
2022-08-05T02:56:03.241Z,14
2022-08-05T02:58:13.477Z,15
2022-08-05T02:59:15.211Z,15
2022-08-05T03:00:20.208Z,15
2022-08-05T03:01:22.992Z,17
2022-08-05T03:02:28.612Z,16
2022-08-05T03:04:14.230Z,17
2022-08-05T03:06:59.566Z,16
2022-08-05T03:08:10.592Z,17
2022-08-05T03:09:51.568Z,16
2022-08-05T03:11:58.715Z,16
2022-08-05T03:14:04.588Z,16
2022-08-05T03:15:13.077Z,16
2022-08-05T03:16:20.398Z,16
2022-08-05T03:17:28.889Z,17
2022-08-05T03:18:30.944Z,16
2022-08-05T03:19:36.494Z,17
2022-08-05T03:20:49.110Z,16
2022-08-05T03:21:58.986Z,15
2022-08-05T03:23:05.649Z,15
2022-08-05T03:24:15.541Z,15
2022-08-05T03:26:32.749Z,16
2022-08-05T03:28:01.180Z,18
2022-08-05T03:29:04.336Z,19
2022-08-05T03:30:34.402Z,19
2022-08-05T03:32:00.852Z,19
2022-08-05T03:33:02.847Z,18
2022-08-05T03:34:04.046Z,18
2022-08-05T03:35:06.035Z,18
2022-08-05T03:36:12.802Z,16
2022-08-05T03:37:15.717Z,16
2022-08-05T03:38:37.439Z,17
2022-08-05T03:40:05.117Z,16
2022-08-05T03:41:13.514Z,18
2022-08-05T03:42:16.983Z,19
2022-08-05T03:44:12.298Z,19
2022-08-05T03:45:23.968Z,20
2022-08-05T03:46:32.840Z,18
2022-08-05T03:47:41.931Z,18
2022-08-05T03:48:47.014Z,16
2022-08-05T03:49:52.756Z,16
2022-08-05T03:50:54.690Z,17
2022-08-05T03:57:18.198Z,16
2022-08-05T03:58:29.618Z,16
2022-08-05T03:59:55.884Z,17
2022-08-05T04:01:00.206Z,16
2022-08-05T04:02:01.459Z,18
2022-08-05T04:03:06.778Z,17
2022-08-05T04:04:30.082Z,16
2022-08-05T04:05:35.064Z,16
2022-08-05T04:06:52.230Z,15
2022-08-05T04:07:59.521Z,16
2022-08-05T04:09:01.943Z,15
2022-08-05T04:10:07.226Z,14
2022-08-05T04:11:23.562Z,14
2022-08-05T04:12:55.682Z,14
2022-08-05T04:14:00.881Z,14
2022-08-05T04:15:04.165Z,14
2022-08-05T04:16:32.868Z,15
2022-08-05T04:18:01.210Z,15
2022-08-05T04:19:11.407Z,15
2022-08-05T04:20:17.242Z,17
2022-08-05T04:22:12.685Z,16
2022-08-05T04:24:14.280Z,16
2022-08-05T04:26:01.373Z,16
2022-08-05T04:27:07.931Z,16
2022-08-05T04:28:13.413Z,17
2022-08-05T04:29:18.114Z,18
2022-08-05T04:30:21.535Z,18
2022-08-05T04:31:39.395Z,21
2022-08-05T04:32:43.127Z,20
2022-08-05T04:34:35.920Z,20
2022-08-05T04:36:50.334Z,24
2022-08-05T04:38:07.332Z,25
2022-08-05T04:39:12.778Z,29
2022-08-05T04:40:20.406Z,31
2022-08-05T04:41:39.061Z,30
2022-08-05T04:42:41.881Z,28
2022-08-05T04:43:53.500Z,28
2022-08-05T04:44:56.144Z,28
2022-08-05T04:46:05.415Z,27
2022-08-05T04:47:13.635Z,28
2022-08-05T04:48:28.752Z,27
2022-08-05T04:50:11.848Z,26
2022-08-05T04:51:14.206Z,27
2022-08-05T04:52:15.476Z,27
2022-08-05T04:53:16.504Z,28
2022-08-05T04:54:18.326Z,29
2022-08-05T04:56:35.324Z,28
2022-08-05T04:57:38.958Z,26
2022-08-05T04:58:56.889Z,24
2022-08-05T04:59:59.209Z,22
2022-08-05T05:01:01.147Z,22
2022-08-05T05:02:43.739Z,22
2022-08-05T05:03:46.258Z,23
2022-08-05T05:04:52.008Z,22
2022-08-05T05:06:52.053Z,22
2022-08-05T05:08:02.703Z,24
2022-08-05T05:09:07.290Z,25
2022-08-05T05:10:08.322Z,26
2022-08-05T05:11:09.570Z,27
2022-08-05T05:12:17.092Z,27
2022-08-05T05:13:21.280Z,26
2022-08-05T05:14:32.833Z,28
2022-08-05T05:16:07.325Z,27
2022-08-05T05:17:10.015Z,25
2022-08-05T05:18:11.344Z,25
2022-08-05T05:19:27.670Z,22
2022-08-05T05:20:51.065Z,22
2022-08-05T05:21:56.020Z,21
2022-08-05T05:23:25.135Z,21
2022-08-05T05:25:01.508Z,21
2022-08-05T05:26:18.450Z,21
2022-08-05T05:27:23.388Z,20
2022-08-05T05:28:57.414Z,20
2022-08-05T05:30:05.737Z,21
2022-08-05T05:32:35.755Z,22
2022-08-05T05:34:02.784Z,21
2022-08-05T05:35:06.340Z,21
2022-08-05T05:36:14.806Z,22
2022-08-05T05:37:18.339Z,21
2022-08-05T05:38:28.098Z,21
2022-08-05T05:39:36.646Z,21
2022-08-05T05:40:51.963Z,18
2022-08-05T05:41:58.088Z,17
2022-08-05T05:43:02.583Z,18
2022-08-05T05:44:45.926Z,17
2022-08-05T05:45:48.819Z,18
2022-08-05T05:46:51.472Z,19
2022-08-05T05:48:09.026Z,17
2022-08-05T05:49:23.680Z,16
2022-08-05T05:50:26.486Z,16
2022-08-05T05:51:28.680Z,16
2022-08-05T05:52:51.591Z,15
2022-08-05T05:54:00.346Z,15
2022-08-05T05:55:13.462Z,14
2022-08-05T05:56:34.889Z,14
2022-08-05T05:57:53.213Z,16
2022-08-05T05:58:56.444Z,16
2022-08-05T06:00:11.162Z,17
2022-08-05T06:01:15.854Z,16
2022-08-05T06:02:37.421Z,15
2022-08-05T06:04:04.572Z,15
2022-08-05T06:05:17.558Z,15
2022-08-05T06:06:22.902Z,17
2022-08-05T06:08:01.459Z,16
2022-08-05T06:09:07.783Z,17
2022-08-05T06:10:18.667Z,17
2022-08-05T06:11:24.152Z,16
2022-08-05T06:12:28.753Z,16
2022-08-05T06:13:55.375Z,16
2022-08-05T06:14:57.708Z,16
2022-08-05T06:16:37.673Z,15
2022-08-05T06:17:55.157Z,15
2022-08-05T06:19:07.279Z,15
2022-08-05T06:20:36.036Z,16
2022-08-05T06:21:50.031Z,16
2022-08-05T06:22:58.374Z,17
2022-08-05T06:24:11.321Z,18
2022-08-05T06:26:21.746Z,17
2022-08-05T06:28:21.858Z,17
2022-08-05T06:30:16.688Z,17
2022-08-05T06:31:33.902Z,17
2022-08-05T06:32:37.889Z,18
2022-08-05T06:34:09.451Z,17
2022-08-05T06:36:10.439Z,17
2022-08-05T06:38:02.086Z,16
2022-08-05T06:39:14.170Z,15
2022-08-05T06:40:21.620Z,15
2022-08-05T06:41:41.553Z,14
2022-08-05T06:42:46.834Z,13
2022-08-05T06:44:01.051Z,13
2022-08-05T06:45:09.616Z,14
2022-08-05T06:48:54.828Z,14
2022-08-05T06:50:18.161Z,16
2022-08-05T06:51:34.355Z,16
2022-08-05T06:53:19.674Z,17
2022-08-05T06:54:30.269Z,18
2022-08-05T06:55:37.352Z,19
2022-08-05T06:58:20.521Z,19
2022-08-05T06:59:58.278Z,19
2022-08-05T07:01:01.484Z,18
2022-08-05T07:02:03.282Z,16
2022-08-05T07:03:10.105Z,16
2022-08-05T07:04:19.541Z,16
2022-08-05T07:05:41.069Z,16
2022-08-05T07:06:42.969Z,16
2022-08-05T07:07:47.639Z,16
2022-08-05T07:08:55.403Z,16
2022-08-05T07:10:03.954Z,16
2022-08-05T07:11:16.243Z,15
2022-08-05T07:12:26.460Z,16
2022-08-05T07:14:00.243Z,14
2022-08-05T07:15:02.080Z,14
2022-08-05T07:18:07.240Z,14
2022-08-05T07:20:36.361Z,14
2022-08-05T07:22:02.823Z,14
2022-08-05T07:23:29.794Z,15
2022-08-05T07:24:52.390Z,15
2022-08-05T07:25:57.350Z,15
2022-08-05T07:27:03.049Z,17
2022-08-05T07:28:17.863Z,16
2022-08-05T07:30:31.185Z,17
2022-08-05T07:31:55.704Z,18
2022-08-05T07:32:58.162Z,17
2022-08-05T07:34:00.581Z,18
2022-08-05T07:36:21.663Z,19
2022-08-05T07:37:39.697Z,18
2022-08-05T07:38:55.397Z,19
2022-08-05T07:40:35.550Z,19
2022-08-05T07:42:16.509Z,18
2022-08-05T07:43:37.847Z,17
2022-08-05T07:44:40.266Z,17
2022-08-05T07:45:59.139Z,15
2022-08-05T07:47:10.623Z,14
2022-08-05T07:49:06.398Z,14
2022-08-05T07:50:09.460Z,15
2022-08-05T07:51:48.823Z,15
2022-08-05T07:52:57.017Z,15
2022-08-05T07:54:02.202Z,15
2022-08-05T07:57:03.020Z,15
2022-08-05T07:59:09.958Z,16
2022-08-05T08:00:13.031Z,17
2022-08-05T08:01:16.300Z,17
2022-08-05T08:03:16.015Z,16
2022-08-05T08:04:38.630Z,16
2022-08-05T08:05:50.013Z,15
2022-08-05T08:06:51.764Z,13
2022-08-05T08:08:01.348Z,14
2022-08-05T08:09:03.567Z,13
2022-08-05T08:10:20.892Z,14
2022-08-05T08:12:06.372Z,15
2022-08-05T08:14:01.588Z,14
2022-08-05T08:15:14.178Z,14
2022-08-05T08:16:53.838Z,14
2022-08-05T08:18:15.076Z,14
2022-08-05T08:21:03.989Z,14
2022-08-05T08:22:21.031Z,14
2022-08-05T08:24:08.526Z,13
2022-08-05T08:26:04.893Z,14
2022-08-05T08:27:09.283Z,14
2022-08-05T08:28:42.456Z,14
2022-08-05T08:31:34.170Z,14
2022-08-05T08:32:51.521Z,13
2022-08-05T08:33:57.611Z,12
2022-08-05T08:35:03.449Z,11
2022-08-05T08:37:01.913Z,12
2022-08-05T08:38:07.335Z,12
2022-08-05T08:39:16.810Z,12
2022-08-05T08:40:23.036Z,12
2022-08-05T08:41:58.722Z,11
2022-08-05T08:45:29.572Z,12
2022-08-05T08:46:33.167Z,13
2022-08-05T08:49:03.187Z,14
2022-08-05T08:52:56.801Z,13
2022-08-05T08:54:01.330Z,13
2022-08-05T08:55:31.828Z,12
2022-08-05T08:57:13.615Z,12
2022-08-05T08:58:48.854Z,12
2022-08-05T08:59:56.314Z,12
2022-08-05T09:01:04.383Z,13
2022-08-05T09:02:17.462Z,12
2022-08-05T09:03:21.584Z,13
2022-08-05T09:04:31.620Z,13
2022-08-05T09:06:13.855Z,12
2022-08-05T09:07:59.275Z,14
2022-08-05T09:09:00.267Z,13
2022-08-05T09:10:02.624Z,13
2022-08-05T09:11:16.586Z,14
2022-08-05T09:13:13.565Z,13
2022-08-05T09:15:06.808Z,13
2022-08-05T09:16:19.216Z,12
2022-08-05T09:17:50.041Z,12
2022-08-05T09:18:59.715Z,12
2022-08-05T09:20:08.997Z,13
2022-08-05T09:22:30.776Z,13
2022-08-05T09:23:44.189Z,13
2022-08-05T09:24:49.314Z,13
2022-08-05T09:26:06.754Z,12
2022-08-05T09:28:06.414Z,13
2022-08-05T09:29:32.041Z,13
2022-08-05T09:30:52.405Z,13
2022-08-05T09:32:47.136Z,12
2022-08-05T09:33:56.426Z,12
2022-08-05T09:35:08.966Z,11
2022-08-05T09:36:16.947Z,11
2022-08-05T09:38:29.771Z,12
2022-08-05T09:39:56.916Z,12
2022-08-05T09:40:59.825Z,12
2022-08-05T09:42:05.163Z,12
2022-08-05T09:43:42.582Z,12
2022-08-05T09:44:51.938Z,12
2022-08-05T09:47:15.965Z,12
2022-08-05T09:48:28.860Z,12
2022-08-05T09:50:03.992Z,12
2022-08-05T09:51:16.110Z,11
2022-08-05T09:52:18.625Z,11
2022-08-05T09:56:03.862Z,11
2022-08-05T09:57:25.481Z,10
2022-08-05T09:58:29.540Z,10
2022-08-05T09:59:37.467Z,11
2022-08-05T10:00:40.800Z,11
2022-08-05T10:01:46.692Z,12
2022-08-05T10:03:00.244Z,12
2022-08-05T10:04:04.255Z,12
2022-08-05T10:05:14.401Z,11
2022-08-05T10:06:20.113Z,11
2022-08-05T10:08:38.226Z,9
2022-08-05T10:10:18.062Z,10
2022-08-05T10:11:36.051Z,10
2022-08-05T10:12:50.720Z,11
2022-08-05T10:13:57.298Z,12
2022-08-05T10:15:10.507Z,11
2022-08-05T10:16:17.658Z,11
2022-08-05T10:17:47.511Z,11
2022-08-05T10:19:09.541Z,10
2022-08-05T10:20:20.579Z,10
2022-08-05T10:21:41.267Z,11
2022-08-05T10:22:51.871Z,13
2022-08-05T10:24:05.167Z,13
2022-08-05T10:25:15.046Z,13
2022-08-05T10:26:17.200Z,13
2022-08-05T10:28:17.417Z,11
2022-08-05T10:32:59.953Z,11
2022-08-05T10:34:10.083Z,11
2022-08-05T10:35:12.080Z,10
2022-08-05T10:36:16.353Z,11
2022-08-05T10:37:46.961Z,11
2022-08-05T10:39:11.645Z,11
2022-08-05T10:41:24.257Z,12
2022-08-05T10:42:38.070Z,11
2022-08-05T10:43:45.825Z,12
2022-08-05T10:44:50.868Z,12
2022-08-05T10:46:07.651Z,13
2022-08-05T10:47:31.911Z,14
2022-08-05T10:49:01.627Z,14
2022-08-05T10:50:37.509Z,14
2022-08-05T10:52:03.389Z,13
2022-08-05T10:53:23.363Z,12
2022-08-05T10:54:37.980Z,11
2022-08-05T10:56:26.115Z,10
2022-08-05T10:57:34.454Z,10
2022-08-05T10:58:52.275Z,11
2022-08-05T11:00:20.389Z,11
2022-08-05T11:02:05.678Z,12
2022-08-05T11:03:37.471Z,12
2022-08-05T11:04:44.629Z,11
2022-08-05T11:05:50.154Z,11
2022-08-05T11:07:05.119Z,11
2022-08-05T11:08:39.147Z,10
2022-08-05T11:09:47.897Z,12
2022-08-05T11:12:18.844Z,13
2022-08-05T11:13:21.468Z,14
2022-08-05T11:15:19.895Z,14
2022-08-05T11:16:58.025Z,15
2022-08-05T11:20:22.522Z,15
2022-08-05T11:21:49.981Z,13
2022-08-05T11:23:10.713Z,12
2022-08-05T11:24:31.388Z,11
2022-08-05T11:26:09.504Z,11
2022-08-05T11:27:13.933Z,10
2022-08-05T11:28:17.824Z,11
2022-08-05T11:29:20.759Z,11
2022-08-05T11:30:30.760Z,11
2022-08-05T11:32:01.451Z,12
2022-08-05T11:33:21.152Z,12
2022-08-05T11:34:28.861Z,12
2022-08-05T11:36:09.039Z,12
2022-08-05T11:38:51.775Z,12
2022-08-05T11:40:04.142Z,12
2022-08-05T11:42:04.820Z,14
2022-08-05T11:44:08.733Z,14
2022-08-05T11:46:33.383Z,14
2022-08-05T11:47:55.112Z,13
2022-08-05T11:48:59.870Z,12
2022-08-05T11:50:02.131Z,13
2022-08-05T11:51:11.188Z,13
2022-08-05T11:52:58.995Z,13
2022-08-05T11:54:14.825Z,12
2022-08-05T11:55:36.986Z,11
2022-08-05T11:56:41.602Z,11
2022-08-05T11:58:12.965Z,11
2022-08-05T11:59:24.110Z,11
2022-08-05T12:00:30.747Z,11
2022-08-05T12:01:32.148Z,11
2022-08-05T12:02:40.411Z,11
2022-08-05T12:03:56.627Z,12
2022-08-05T12:05:00.598Z,12
2022-08-05T12:06:20.676Z,11
2022-08-05T12:08:18.558Z,10
2022-08-05T12:09:53.858Z,10
2022-08-05T12:10:56.110Z,10
2022-08-05T12:12:04.167Z,11
2022-08-05T12:13:49.750Z,11
2022-08-05T12:14:52.477Z,11
2022-08-05T12:15:59.314Z,11
2022-08-05T12:18:03.530Z,11
2022-08-05T12:20:34.449Z,11
2022-08-05T12:21:39.767Z,12
2022-08-05T12:22:46.634Z,12
2022-08-05T12:23:52.844Z,12
2022-08-05T12:24:54.440Z,13
2022-08-05T12:25:57.528Z,12
2022-08-05T12:26:59.061Z,11
2022-08-05T12:28:34.762Z,11
2022-08-05T12:29:40.240Z,11
2022-08-05T12:30:56.166Z,10
2022-08-05T12:31:57.873Z,11
2022-08-05T12:33:38.931Z,11
2022-08-05T12:34:50.620Z,12
2022-08-05T12:35:53.848Z,12
2022-08-05T12:36:56.101Z,13
2022-08-05T12:37:58.670Z,12
2022-08-05T12:38:59.777Z,12
2022-08-05T12:40:11.425Z,12
2022-08-05T12:41:34.948Z,12
2022-08-05T12:42:49.060Z,12
2022-08-05T12:43:50.459Z,12
2022-08-05T12:44:51.690Z,12
2022-08-05T12:45:52.971Z,11
2022-08-05T12:46:56.012Z,11
2022-08-05T12:48:32.434Z,12
2022-08-05T12:50:07.842Z,11
2022-08-05T12:52:29.739Z,12
2022-08-05T12:53:56.056Z,13
2022-08-05T12:55:02.758Z,12
2022-08-05T12:56:37.341Z,13
2022-08-05T12:59:02.589Z,12
2022-08-05T13:02:10.469Z,12
2022-08-05T13:03:15.719Z,13
2022-08-05T13:04:25.344Z,13
2022-08-05T13:05:40.636Z,14
2022-08-05T13:06:53.500Z,15
2022-08-05T13:08:02.659Z,14
2022-08-05T13:09:14.349Z,13
2022-08-05T13:10:30.570Z,14
2022-08-05T13:12:03.967Z,14
2022-08-05T13:14:07.971Z,14
2022-08-05T13:15:36.239Z,14
2022-08-05T13:16:52.329Z,14
2022-08-05T13:18:01.507Z,15
2022-08-05T13:19:04.489Z,15
2022-08-05T13:20:08.826Z,15
2022-08-05T13:21:13.956Z,15
2022-08-05T13:22:30.153Z,16
2022-08-05T13:23:34.720Z,16
2022-08-05T13:25:05.066Z,17
2022-08-05T13:27:01.774Z,16
2022-08-05T13:28:04.226Z,14
2022-08-05T13:29:06.391Z,13
2022-08-05T13:30:39.682Z,13
2022-08-05T13:32:06.345Z,14
2022-08-05T13:34:26.809Z,16
2022-08-05T13:35:52.058Z,16
2022-08-05T13:36:53.643Z,16
2022-08-05T13:37:56.214Z,14
2022-08-05T13:40:51.626Z,12
2022-08-05T13:41:56.171Z,12
2022-08-05T13:42:57.933Z,13
2022-08-05T13:43:59.773Z,14
2022-08-05T13:45:02.612Z,15
2022-08-05T13:46:08.806Z,15
2022-08-05T13:49:00.480Z,15
2022-08-05T13:50:17.331Z,15
2022-08-05T13:51:19.946Z,15
2022-08-05T13:52:30.647Z,16
2022-08-05T13:53:49.098Z,15
2022-08-05T13:54:54.155Z,14
2022-08-05T13:56:02.908Z,14
2022-08-05T13:57:19.766Z,13
2022-08-05T13:58:31.726Z,13
2022-08-05T13:59:36.653Z,13
2022-08-05T14:01:07.944Z,13
2022-08-05T14:02:29.655Z,14
2022-08-05T14:03:35.469Z,14
2022-08-05T14:04:52.585Z,13
2022-08-05T14:06:27.743Z,13
2022-08-05T14:08:27.625Z,11
2022-08-05T14:09:46.945Z,12
2022-08-05T14:10:48.861Z,12
2022-08-05T14:12:32.413Z,12
2022-08-05T14:13:35.135Z,12
2022-08-05T14:14:37.467Z,11
2022-08-05T14:16:16.904Z,11
2022-08-05T14:17:20.749Z,11
2022-08-05T14:18:24.415Z,11
2022-08-05T14:19:28.925Z,11
2022-08-05T14:20:30.181Z,11
2022-08-05T14:22:12.438Z,10
2022-08-05T14:23:24.924Z,11
2022-08-05T14:24:40.294Z,11
2022-08-05T14:25:59.530Z,11
2022-08-05T14:27:19.323Z,12
2022-08-05T14:28:28.330Z,11
2022-08-05T14:29:31.790Z,11
2022-08-05T14:30:36.618Z,11
2022-08-05T14:32:27.888Z,11
2022-08-05T14:34:01.710Z,10
2022-08-05T14:35:04.039Z,10
2022-08-05T14:36:12.526Z,11
2022-08-05T14:37:14.436Z,12
2022-08-05T14:38:36.457Z,12
2022-08-05T14:39:58.955Z,12
2022-08-05T14:41:01.254Z,11
2022-08-05T14:42:22.194Z,11
2022-08-05T14:44:21.875Z,11
2022-08-05T14:45:24.588Z,11
2022-08-05T14:46:31.191Z,11
2022-08-05T14:48:09.015Z,10
2022-08-05T14:50:19.229Z,10
2022-08-05T14:51:21.450Z,10
2022-08-05T14:52:58.831Z,10
2022-08-05T14:54:34.220Z,11
2022-08-05T14:55:55.675Z,11
2022-08-05T14:56:56.989Z,12
2022-08-05T14:57:58.790Z,12
2022-08-05T14:59:15.712Z,13
2022-08-05T15:00:29.451Z,13
2022-08-05T15:01:50.428Z,13
2022-08-05T15:02:55.432Z,13
2022-08-05T15:04:01.626Z,13
2022-08-05T15:05:14.323Z,14
2022-08-05T15:06:16.949Z,14
2022-08-05T15:08:38.237Z,15
2022-08-05T15:10:10.622Z,15
2022-08-05T15:11:13.212Z,14
2022-08-05T15:12:17.999Z,13
2022-08-05T15:13:50.659Z,12
2022-08-05T15:14:57.026Z,12
2022-08-05T15:15:59.384Z,13
2022-08-05T15:17:01.768Z,15
2022-08-05T15:18:47.790Z,16
2022-08-05T15:19:56.400Z,17
2022-08-05T15:21:08.812Z,17
2022-08-05T15:22:16.567Z,15
2022-08-05T15:23:29.080Z,14
2022-08-05T15:24:31.247Z,14
2022-08-05T15:26:01.002Z,13
2022-08-05T15:27:09.586Z,12
2022-08-05T15:28:16.189Z,12
2022-08-05T15:29:29.964Z,12
2022-08-05T15:30:46.782Z,12
2022-08-05T15:31:56.754Z,13
2022-08-05T15:33:08.164Z,13
2022-08-05T15:34:34.239Z,13
2022-08-05T15:35:45.844Z,12
2022-08-05T15:36:50.642Z,12
2022-08-05T15:38:42.417Z,12
2022-08-05T15:41:24.462Z,12
2022-08-05T15:43:21.533Z,12
2022-08-05T15:44:28.277Z,13
2022-08-05T15:45:39.370Z,14
2022-08-05T15:46:41.635Z,14
2022-08-05T15:47:43.463Z,13
2022-08-05T15:49:13.385Z,13
2022-08-05T15:51:07.772Z,12
2022-08-05T15:52:55.240Z,12
2022-08-05T15:54:08.864Z,11
2022-08-05T15:55:16.987Z,12
2022-08-05T15:57:09.854Z,12
2022-08-05T15:58:17.691Z,12
2022-08-05T15:59:24.806Z,13
2022-08-05T16:01:17.845Z,12
2022-08-05T16:02:31.771Z,13
2022-08-05T16:03:41.861Z,13
2022-08-05T16:04:42.880Z,12
2022-08-05T16:05:56.358Z,13
2022-08-05T16:06:58.568Z,13
2022-08-05T16:08:01.346Z,14
2022-08-05T16:09:02.469Z,14
2022-08-05T16:10:04.664Z,14
2022-08-05T16:11:15.185Z,13
2022-08-05T16:12:16.439Z,12
2022-08-05T16:13:35.340Z,12
2022-08-05T16:14:37.113Z,12
2022-08-05T16:15:43.859Z,12
2022-08-05T16:16:49.619Z,11
2022-08-05T16:17:59.076Z,11
2022-08-05T16:20:05.793Z,11
2022-08-05T16:21:14.118Z,11
2022-08-05T16:22:15.999Z,12
2022-08-05T16:23:17.405Z,12
2022-08-05T16:24:52.360Z,11
2022-08-05T16:25:57.299Z,11
2022-08-05T16:26:58.344Z,11
2022-08-05T16:28:10.480Z,11
2022-08-05T16:29:21.584Z,11
2022-08-05T16:30:29.475Z,11
2022-08-05T16:31:58.093Z,11
2022-08-05T16:33:02.428Z,10
2022-08-05T16:34:09.859Z,10
2022-08-05T16:35:11.086Z,10
2022-08-05T16:36:34.450Z,11
2022-08-05T16:38:28.536Z,11
2022-08-05T16:40:26.790Z,11
2022-08-05T16:42:21.605Z,11
2022-08-05T16:43:32.440Z,11
2022-08-05T16:44:33.458Z,12
2022-08-05T16:46:25.062Z,13
2022-08-05T16:47:55.647Z,13
2022-08-05T16:49:07.411Z,14
2022-08-05T16:50:10.900Z,14
2022-08-05T16:51:16.125Z,13
2022-08-05T16:52:20.914Z,12
2022-08-05T16:54:11.375Z,14
2022-08-05T16:55:48.061Z,15
2022-08-05T16:56:52.841Z,17
2022-08-05T16:58:08.847Z,19
2022-08-05T16:59:14.644Z,21
2022-08-05T17:00:38.178Z,22
2022-08-05T17:01:57.040Z,23
2022-08-05T17:03:02.338Z,26
2022-08-05T17:04:28.106Z,26
2022-08-05T17:05:31.436Z,26
2022-08-05T17:06:42.210Z,24
2022-08-05T17:07:57.062Z,21
2022-08-05T17:08:59.701Z,20
2022-08-05T17:10:03.765Z,19
2022-08-05T17:11:17.345Z,18
2022-08-05T17:12:52.723Z,18
2022-08-05T17:14:07.128Z,16
2022-08-05T17:16:19.646Z,15
2022-08-05T17:17:43.237Z,14
2022-08-05T17:18:45.640Z,14
2022-08-05T17:19:57.295Z,14
2022-08-05T17:21:05.189Z,14
2022-08-05T17:22:25.178Z,15
2022-08-05T17:24:31.392Z,15
2022-08-05T17:26:15.468Z,15
2022-08-05T17:27:22.925Z,18
2022-08-05T17:28:35.540Z,20
2022-08-05T17:29:43.418Z,19
2022-08-05T17:31:58.725Z,20
2022-08-05T17:34:19.881Z,16
2022-08-05T17:36:38.698Z,16
2022-08-05T17:37:49.274Z,16
2022-08-05T17:39:01.254Z,16
2022-08-05T17:40:40.326Z,15
2022-08-05T17:42:33.220Z,14
2022-08-05T17:43:55.784Z,14
2022-08-05T17:45:22.538Z,13
2022-08-05T17:46:42.592Z,13
2022-08-05T17:47:56.359Z,13
2022-08-05T17:48:58.624Z,14
2022-08-05T17:50:11.763Z,15
2022-08-05T17:51:13.109Z,15
2022-08-05T17:52:27.250Z,17
2022-08-05T17:53:36.186Z,16
2022-08-05T17:54:40.425Z,18
2022-08-05T17:55:41.898Z,18
2022-08-05T17:56:51.570Z,17
2022-08-05T17:57:53.139Z,17
2022-08-05T17:58:54.938Z,15
2022-08-05T18:00:07.357Z,15
2022-08-05T18:01:11.168Z,15
2022-08-05T18:02:18.645Z,15
2022-08-05T18:04:06.377Z,15
2022-08-05T18:05:36.512Z,15
2022-08-05T18:06:39.470Z,14
2022-08-05T18:07:50.215Z,14
2022-08-05T18:08:53.110Z,14
2022-08-05T18:10:10.881Z,14
2022-08-05T18:11:34.132Z,16
2022-08-05T18:12:37.715Z,17
2022-08-05T18:13:44.586Z,18
2022-08-05T18:14:47.496Z,18
2022-08-05T18:15:49.722Z,17
2022-08-05T18:16:52.828Z,17
2022-08-05T18:18:10.801Z,17
2022-08-05T18:19:13.618Z,17
2022-08-05T18:20:16.306Z,17
2022-08-05T18:22:08.137Z,18
2022-08-05T18:23:22.286Z,18
2022-08-05T18:24:46.362Z,18
2022-08-05T18:25:59.891Z,18
2022-08-05T18:27:01.618Z,16
2022-08-05T18:28:06.539Z,15
2022-08-05T18:29:11.824Z,15
2022-08-05T18:30:40.820Z,16
2022-08-05T18:31:43.917Z,16
2022-08-05T18:33:00.950Z,17
2022-08-05T18:34:02.637Z,17
2022-08-05T18:35:06.587Z,18
2022-08-05T18:36:16.353Z,18
2022-08-05T18:37:40.750Z,20
2022-08-05T18:38:43.230Z,19
2022-08-05T18:42:10.619Z,19
2022-08-05T18:43:23.500Z,21
2022-08-05T18:44:56.743Z,21
2022-08-05T18:45:59.850Z,24
2022-08-05T18:47:01.699Z,24
2022-08-05T18:48:04.856Z,25
2022-08-05T18:49:17.809Z,26
2022-08-05T18:50:47.327Z,25
2022-08-05T18:52:10.785Z,25
2022-08-05T18:53:26.730Z,24
2022-08-05T18:54:55.671Z,24
2022-08-05T18:56:00.367Z,24
2022-08-05T18:57:15.754Z,24
2022-08-05T18:58:24.351Z,24
2022-08-05T19:00:20.159Z,23
2022-08-05T19:01:58.729Z,23
2022-08-05T19:03:07.975Z,21
2022-08-05T19:04:27.266Z,19
2022-08-05T19:06:37.371Z,19
2022-08-05T19:07:47.583Z,19
2022-08-05T19:08:52.999Z,20
2022-08-05T19:09:55.583Z,20
2022-08-05T19:11:07.323Z,19
2022-08-05T19:12:13.861Z,18
2022-08-05T19:13:20.569Z,18
2022-08-05T19:15:02.969Z,17
2022-08-05T19:16:04.787Z,17
2022-08-05T19:18:21.922Z,18
2022-08-05T19:19:25.200Z,18
2022-08-05T19:20:27.927Z,19
2022-08-05T19:21:36.367Z,20